createdAt,value
2022-08-25T00:01:40.267Z,26.60
2022-08-25T00:04:11.259Z,26.60
2022-08-25T00:06:40.983Z,26.70
2022-08-25T00:09:09.477Z,26.70
2022-08-25T00:11:39.283Z,26.70
2022-08-25T00:14:13.281Z,26.70
2022-08-25T00:16:42.610Z,26.70
2022-08-25T00:19:13.075Z,26.80
2022-08-25T00:21:41.512Z,26.80
2022-08-25T00:24:11.199Z,26.80
2022-08-25T00:26:40.974Z,26.90
2022-08-25T00:29:09.384Z,26.90
2022-08-25T00:31:39.029Z,26.90
2022-08-25T00:34:13.035Z,26.90
2022-08-25T00:36:40.951Z,26.90
2022-08-25T00:39:09.456Z,26.90
2022-08-25T00:41:39.053Z,26.90
2022-08-25T00:44:18.077Z,26.90
2022-08-25T00:46:52.125Z,26.90
2022-08-25T00:49:25.447Z,26.90
2022-08-25T00:52:04.887Z,26.90
2022-08-25T00:54:34.535Z,26.90
2022-08-25T00:57:03.585Z,27.00
2022-08-25T00:59:31.575Z,27.00
2022-08-25T01:01:59.974Z,27.10
2022-08-25T01:04:28.089Z,27.10
2022-08-25T01:06:57.100Z,27.20
2022-08-25T01:09:25.013Z,27.20
2022-08-25T01:12:04.301Z,27.20
2022-08-25T01:14:33.303Z,27.20
2022-08-25T01:17:01.885Z,27.20
2022-08-25T01:19:30.394Z,27.20
2022-08-25T01:21:58.562Z,27.20
2022-08-25T01:24:39.030Z,27.20
2022-08-25T01:27:06.909Z,27.10
2022-08-25T01:29:44.906Z,27.10
2022-08-25T01:32:14.634Z,27.00
2022-08-25T01:35:08.892Z,27.00
2022-08-25T01:37:36.963Z,27.00
2022-08-25T01:43:08.517Z,26.90
2022-08-25T01:45:36.403Z,27.10
2022-08-25T01:48:05.486Z,26.90
2022-08-25T01:50:34.980Z,26.90
2022-08-25T01:53:22.416Z,26.90
2022-08-25T01:55:54.263Z,26.90
2022-08-25T01:58:30.786Z,26.90
2022-08-25T02:01:03.879Z,26.90
2022-08-25T02:03:32.597Z,27.00
2022-08-25T02:06:01.686Z,27.00
2022-08-25T02:08:32.214Z,27.00
2022-08-25T02:11:00.052Z,27.10
2022-08-25T02:13:31.599Z,27.10
2022-08-25T02:16:01.492Z,27.10
2022-08-25T02:18:29.752Z,27.10
2022-08-25T02:20:57.513Z,27.20
2022-08-25T02:23:27.598Z,27.20
2022-08-25T02:25:57.657Z,27.30
2022-08-25T02:28:26.069Z,27.40
2022-08-25T02:30:58.565Z,27.50
2022-08-25T02:33:30.701Z,27.60
2022-08-25T02:35:59.592Z,27.70
2022-08-25T02:38:28.428Z,27.70
2022-08-25T02:40:57.072Z,27.70
2022-08-25T02:43:26.128Z,27.70
2022-08-25T02:45:58.929Z,27.70
2022-08-25T02:48:36.689Z,27.80
2022-08-25T02:51:04.760Z,27.80
2022-08-25T02:53:33.102Z,27.80
2022-08-25T02:56:05.218Z,27.80
2022-08-25T02:58:33.109Z,27.80
2022-08-25T03:01:01.549Z,27.90
2022-08-25T03:03:29.991Z,27.90
2022-08-25T03:05:58.171Z,27.90
2022-08-25T03:08:26.662Z,28.00
2022-08-25T03:10:54.541Z,28.00
2022-08-25T03:13:22.327Z,28.00
2022-08-25T03:15:51.105Z,28.00
2022-08-25T03:18:19.462Z,28.00
2022-08-25T03:20:47.540Z,28.00
2022-08-25T03:23:16.019Z,28.10
2022-08-25T03:25:57.178Z,28.10
2022-08-25T03:28:29.910Z,28.10
2022-08-25T03:31:00.653Z,28.10
2022-08-25T03:33:29.136Z,28.10
2022-08-25T03:35:57.293Z,28.10
2022-08-25T03:38:25.682Z,28.10
2022-08-25T03:40:53.609Z,28.20
2022-08-25T03:43:22.890Z,28.30
2022-08-25T03:45:50.745Z,28.30
2022-08-25T03:48:18.730Z,28.30
2022-08-25T03:50:51.650Z,28.30
2022-08-25T03:53:20.994Z,28.40
2022-08-25T03:55:48.762Z,28.40
2022-08-25T03:58:16.583Z,28.40
2022-08-25T04:00:45.282Z,28.50
2022-08-25T04:03:13.193Z,28.50
2022-08-25T04:05:42.156Z,28.50
2022-08-25T04:08:10.026Z,28.50
2022-08-25T04:10:38.831Z,28.60
2022-08-25T04:13:06.720Z,28.60
2022-08-25T04:15:34.639Z,28.70
2022-08-25T04:18:02.483Z,28.80
2022-08-25T04:20:30.562Z,28.80
2022-08-25T04:23:02.546Z,28.90
2022-08-25T04:25:31.293Z,28.90
2022-08-25T04:27:59.538Z,29.00
2022-08-25T04:30:27.411Z,29.10
2022-08-25T04:32:55.400Z,29.20
2022-08-25T04:35:24.071Z,29.30
2022-08-25T04:37:51.950Z,29.30
2022-08-25T04:40:20.645Z,29.40
2022-08-25T04:42:58.462Z,29.40
2022-08-25T04:45:26.357Z,29.50
2022-08-25T04:47:55.203Z,29.50
2022-08-25T04:50:23.065Z,29.50
2022-08-25T04:52:50.905Z,29.60
2022-08-25T04:55:18.627Z,29.60
2022-08-25T04:57:46.417Z,29.60
2022-08-25T05:00:14.527Z,29.70
2022-08-25T05:02:45.453Z,29.70
2022-08-25T05:05:13.400Z,29.80
2022-08-25T05:07:41.161Z,29.90
2022-08-25T05:10:09.166Z,30.00
2022-08-25T05:12:39.984Z,30.10
2022-08-25T05:15:21.026Z,30.20
2022-08-25T05:17:51.632Z,30.30
2022-08-25T05:20:23.668Z,30.40
2022-08-25T05:23:11.216Z,30.50
2022-08-25T05:25:40.081Z,30.60
2022-08-25T05:28:07.833Z,30.60
2022-08-25T05:30:38.821Z,30.70
2022-08-25T05:33:07.154Z,30.70
2022-08-25T05:35:36.177Z,30.70
2022-08-25T05:38:05.600Z,30.80
2022-08-25T05:40:36.714Z,30.80
2022-08-25T05:43:04.484Z,30.80
2022-08-25T05:45:33.232Z,30.80
2022-08-25T05:48:02.553Z,30.90
2022-08-25T05:50:30.390Z,30.90
2022-08-25T05:52:58.183Z,30.80
2022-08-25T05:55:25.847Z,30.80
2022-08-25T05:57:54.723Z,30.70
2022-08-25T06:00:22.605Z,30.70
2022-08-25T06:02:51.607Z,30.70
2022-08-25T06:05:22.761Z,30.80
2022-08-25T06:07:52.818Z,30.80
2022-08-25T06:10:20.641Z,30.90
2022-08-25T06:12:51.558Z,30.90
2022-08-25T06:15:23.236Z,31.00
2022-08-25T06:17:53.660Z,31.00
2022-08-25T06:20:25.930Z,31.00
2022-08-25T06:22:54.070Z,31.00
2022-08-25T06:25:23.533Z,31.00
2022-08-25T06:27:51.363Z,31.00
2022-08-25T06:30:24.578Z,31.10
2022-08-25T06:32:57.395Z,31.10
2022-08-25T06:35:25.548Z,31.20
2022-08-25T06:37:53.719Z,31.30
2022-08-25T06:40:21.578Z,31.30
2022-08-25T06:42:50.997Z,31.40
2022-08-25T06:45:19.066Z,31.40
2022-08-25T06:47:46.885Z,31.40
2022-08-25T06:50:15.694Z,31.30
2022-08-25T06:52:44.408Z,31.30
2022-08-25T06:55:12.764Z,31.30
2022-08-25T06:57:40.460Z,31.30
2022-08-25T07:00:11.367Z,31.30
2022-08-25T07:02:40.357Z,31.20
2022-08-25T07:05:10.474Z,31.20
2022-08-25T07:07:43.964Z,31.20
2022-08-25T07:10:13.206Z,31.20
2022-08-25T07:12:41.256Z,31.20
2022-08-25T07:15:19.713Z,31.20
2022-08-25T07:17:48.559Z,31.10
2022-08-25T07:20:19.271Z,31.00
2022-08-25T07:22:47.599Z,31.00
2022-08-25T07:25:17.692Z,31.00
2022-08-25T07:27:46.115Z,30.90
2022-08-25T07:30:14.473Z,30.90
2022-08-25T07:32:43.326Z,30.90
2022-08-25T07:35:18.844Z,30.90
2022-08-25T07:37:52.148Z,30.80
2022-08-25T07:40:23.119Z,30.80
2022-08-25T07:42:53.206Z,30.80
2022-08-25T07:45:22.322Z,30.70
2022-08-25T07:47:53.497Z,30.80
2022-08-25T07:50:21.513Z,30.70
2022-08-25T07:52:55.454Z,30.70
2022-08-25T07:55:27.771Z,30.60
2022-08-25T07:57:57.389Z,30.60
2022-08-25T08:00:31.110Z,30.60
2022-08-25T08:02:59.733Z,30.50
2022-08-25T08:05:28.492Z,30.50
2022-08-25T08:07:57.701Z,30.40
2022-08-25T08:10:48.086Z,30.30
2022-08-25T08:13:18.005Z,30.30
2022-08-25T08:15:47.412Z,30.30
2022-08-25T08:18:16.343Z,30.20
2022-08-25T08:20:45.064Z,30.00
2022-08-25T08:23:12.881Z,29.80
2022-08-25T08:25:41.526Z,29.70
2022-08-25T08:28:10.916Z,29.50
2022-08-25T08:30:39.673Z,29.30
2022-08-25T08:33:20.989Z,29.20
2022-08-25T08:35:48.949Z,29.10
2022-08-25T08:38:22.175Z,29.00
2022-08-25T08:41:22.999Z,28.90
2022-08-25T08:43:55.025Z,28.90
2022-08-25T08:46:25.913Z,28.80
2022-08-25T08:49:01.881Z,28.80
2022-08-25T08:51:36.422Z,28.70
2022-08-25T08:54:14.992Z,28.70
2022-08-25T08:56:45.245Z,28.60
2022-08-25T08:59:30.352Z,28.60
2022-08-25T09:02:01.006Z,28.60
2022-08-25T09:04:33.340Z,28.50
2022-08-25T09:07:03.470Z,28.50
2022-08-25T09:09:35.856Z,28.50
2022-08-25T09:12:24.403Z,28.50
2022-08-25T09:15:15.395Z,28.40
2022-08-25T09:17:58.286Z,28.40
2022-08-25T09:20:37.619Z,28.40
2022-08-25T09:23:14.040Z,28.40
2022-08-25T09:25:53.336Z,28.40
2022-08-25T09:28:33.368Z,28.40
2022-08-25T09:31:14.603Z,28.40
2022-08-25T09:33:43.440Z,28.40
2022-08-25T09:36:13.682Z,28.30
2022-08-25T09:38:42.580Z,28.30
2022-08-25T09:41:11.826Z,28.30
2022-08-25T09:43:43.786Z,28.30
2022-08-25T09:46:24.048Z,28.30
2022-08-25T09:48:57.638Z,28.30
2022-08-25T09:51:42.607Z,28.30
2022-08-25T09:54:44.193Z,28.30
2022-08-25T09:57:28.292Z,28.30
2022-08-25T09:59:57.568Z,28.20
2022-08-25T10:02:30.729Z,28.20
2022-08-25T10:04:58.605Z,28.20
2022-08-25T10:07:32.626Z,28.20
2022-08-25T10:10:02.292Z,28.20
2022-08-25T10:12:33.764Z,28.20
2022-08-25T10:15:16.231Z,28.20
2022-08-25T10:18:17.964Z,28.20
2022-08-25T10:21:01.269Z,28.20
2022-08-25T10:23:30.897Z,28.20
2022-08-25T10:26:03.531Z,28.20
2022-08-25T10:28:53.017Z,28.20
2022-08-25T10:31:24.917Z,28.20
2022-08-25T10:34:00.040Z,28.20
2022-08-25T10:36:41.686Z,28.20
2022-08-25T10:39:34.659Z,28.10
2022-08-25T10:42:14.419Z,28.10
2022-08-25T10:45:16.160Z,28.00
2022-08-25T10:47:54.287Z,28.00
2022-08-25T10:50:30.714Z,27.90
2022-08-25T10:53:17.311Z,27.90
2022-08-25T10:56:07.260Z,27.80
2022-08-25T10:58:55.769Z,27.80
2022-08-25T11:01:44.065Z,27.80
2022-08-25T11:04:27.382Z,27.70
2022-08-25T11:07:05.061Z,27.70
2022-08-25T11:09:35.979Z,27.60
2022-08-25T11:12:24.119Z,27.60
2022-08-25T11:14:57.920Z,27.50
2022-08-25T11:17:38.759Z,27.50
2022-08-25T11:20:16.306Z,27.50
2022-08-25T11:23:01.265Z,27.40
2022-08-25T11:25:32.934Z,27.40
2022-08-25T11:28:08.049Z,27.40
2022-08-25T11:30:35.931Z,27.40
2022-08-25T11:33:04.821Z,27.40
2022-08-25T11:35:43.959Z,27.30
2022-08-25T11:38:23.982Z,27.30
2022-08-25T11:41:12.650Z,27.30
2022-08-25T11:43:53.515Z,27.30
2022-08-25T11:46:33.513Z,27.30
2022-08-25T11:49:22.529Z,27.20
2022-08-25T11:51:52.138Z,27.20
2022-08-25T11:54:29.428Z,27.20
2022-08-25T11:57:08.626Z,27.20
2022-08-25T11:59:49.521Z,27.20
2022-08-25T12:02:30.566Z,27.20
2022-08-25T12:04:58.523Z,27.20
2022-08-25T12:07:28.467Z,27.20
2022-08-25T12:10:14.319Z,27.20
2022-08-25T12:13:01.634Z,27.20
2022-08-25T12:15:52.023Z,27.20
2022-08-25T12:18:45.730Z,27.20
2022-08-25T12:21:15.293Z,27.20
2022-08-25T12:23:57.027Z,27.20
2022-08-25T12:26:38.531Z,27.20
2022-08-25T12:29:12.024Z,27.20
2022-08-25T12:32:04.998Z,27.10
2022-08-25T12:34:53.386Z,27.10
2022-08-25T12:37:22.518Z,27.10
2022-08-25T12:40:01.530Z,27.10
2022-08-25T12:42:32.660Z,27.10
2022-08-25T12:45:16.182Z,27.10
2022-08-25T12:47:49.031Z,27.00
2022-08-25T12:50:29.859Z,27.00
2022-08-25T12:53:03.320Z,27.00
2022-08-25T12:55:31.548Z,27.00
2022-08-25T12:58:01.272Z,27.00
2022-08-25T13:00:32.285Z,26.90
2022-08-25T13:03:12.394Z,26.90
2022-08-25T13:05:53.976Z,26.90
2022-08-25T13:08:46.667Z,26.90
2022-08-25T13:11:21.502Z,26.80
2022-08-25T13:13:59.122Z,26.90
2022-08-25T13:16:29.739Z,26.80
2022-08-25T13:18:59.728Z,26.80
2022-08-25T13:21:39.520Z,26.80
2022-08-25T13:24:11.489Z,26.80
2022-08-25T13:26:48.022Z,26.80
2022-08-25T13:29:25.569Z,26.80
2022-08-25T13:32:01.309Z,26.70
2022-08-25T13:34:35.073Z,26.70
2022-08-25T13:37:23.877Z,26.70
2022-08-25T13:39:56.225Z,26.80
2022-08-25T13:42:28.857Z,26.70
2022-08-25T13:44:57.304Z,26.70
2022-08-25T13:47:43.740Z,26.70
2022-08-25T13:50:19.904Z,26.70
2022-08-25T13:52:56.828Z,26.70
2022-08-25T13:55:27.583Z,26.80
2022-08-25T13:57:58.139Z,26.70
2022-08-25T14:00:31.985Z,26.70
2022-08-25T14:03:00.924Z,26.70
2022-08-25T14:05:35.985Z,26.80
2022-08-25T14:08:16.068Z,26.80
2022-08-25T14:10:46.521Z,26.80
2022-08-25T14:13:33.865Z,26.70
2022-08-25T14:16:17.494Z,26.70
2022-08-25T14:18:50.239Z,26.70
2022-08-25T14:21:19.224Z,26.40
2022-08-25T14:23:47.803Z,26.70
2022-08-25T14:26:17.436Z,26.60
2022-08-25T14:28:46.097Z,26.60
2022-08-25T14:31:17.413Z,26.60
2022-08-25T14:33:56.287Z,26.60
2022-08-25T14:36:23.980Z,26.60
2022-08-25T14:38:54.579Z,26.60
2022-08-25T14:41:24.179Z,26.50
2022-08-25T14:43:52.155Z,26.50
2022-08-25T14:46:26.300Z,26.50
2022-08-25T14:49:06.435Z,26.50
2022-08-25T14:51:36.116Z,26.60
2022-08-25T14:54:05.969Z,26.50
2022-08-25T14:56:35.232Z,26.60
2022-08-25T14:59:05.965Z,26.60
2022-08-25T15:01:36.700Z,26.60
2022-08-25T15:04:07.866Z,26.60
2022-08-25T15:06:36.235Z,26.60
2022-08-25T15:09:08.786Z,26.60
2022-08-25T15:11:40.940Z,26.60
2022-08-25T15:14:12.107Z,26.60
2022-08-25T15:16:45.788Z,26.60
2022-08-25T15:19:16.671Z,26.60
2022-08-25T15:21:45.137Z,26.60
2022-08-25T15:24:17.525Z,26.60
2022-08-25T15:26:57.410Z,26.60
2022-08-25T15:29:28.499Z,26.60
2022-08-25T15:31:57.507Z,26.70
2022-08-25T15:34:26.042Z,26.60
2022-08-25T15:36:54.787Z,26.60
2022-08-25T15:39:23.409Z,26.70
2022-08-25T15:41:53.625Z,26.70
2022-08-25T15:44:26.151Z,26.70
2022-08-25T15:46:58.183Z,26.70
2022-08-25T15:49:26.371Z,26.70
2022-08-25T15:51:57.685Z,26.70
2022-08-25T15:54:27.240Z,26.70
2022-08-25T15:56:55.925Z,26.70
2022-08-25T15:59:25.222Z,26.70
2022-08-25T16:01:57.590Z,26.70
2022-08-25T16:04:27.562Z,26.70
2022-08-25T16:06:56.443Z,26.70
2022-08-25T16:09:26.752Z,26.70
2022-08-25T16:11:55.794Z,26.70
2022-08-25T16:14:26.184Z,26.70
2022-08-25T16:16:58.639Z,26.70
2022-08-25T16:19:29.509Z,26.70
2022-08-25T16:21:58.351Z,26.70
2022-08-25T16:24:28.784Z,26.70
2022-08-25T16:27:11.358Z,26.70
2022-08-25T16:29:41.878Z,26.70
2022-08-25T16:32:10.187Z,26.70
2022-08-25T16:34:38.239Z,26.70
2022-08-25T16:37:07.299Z,26.70
2022-08-25T16:39:35.259Z,26.70
2022-08-25T16:42:03.901Z,26.70
2022-08-25T16:44:32.256Z,26.70
2022-08-25T16:47:00.844Z,26.70
2022-08-25T16:49:28.653Z,26.70
2022-08-25T16:51:57.986Z,26.70
2022-08-25T16:54:40.141Z,26.70
2022-08-25T16:57:07.873Z,26.70
2022-08-25T16:59:36.414Z,26.70
2022-08-25T17:02:07.674Z,26.70
2022-08-25T17:04:36.465Z,26.70
2022-08-25T17:07:06.039Z,26.70
2022-08-25T17:09:36.463Z,26.70
2022-08-25T17:12:06.314Z,26.70
2022-08-25T17:14:34.053Z,26.70
2022-08-25T17:17:04.018Z,26.70
2022-08-25T17:19:35.750Z,26.70
2022-08-25T17:22:04.421Z,26.70
2022-08-25T17:24:34.479Z,26.70
2022-08-25T17:27:02.569Z,26.70
2022-08-25T17:29:30.295Z,26.70
2022-08-25T17:31:59.259Z,26.70
2022-08-25T17:34:27.841Z,26.70
2022-08-25T17:36:56.873Z,26.70
2022-08-25T17:39:25.482Z,26.70
2022-08-25T17:41:53.305Z,26.70
2022-08-25T17:44:21.176Z,26.70
2022-08-25T17:46:50.064Z,26.70
2022-08-25T17:49:19.935Z,26.70
2022-08-25T17:51:48.564Z,26.70
2022-08-25T17:54:18.412Z,26.70
2022-08-25T17:56:46.545Z,26.70
2022-08-25T17:59:15.236Z,26.70
2022-08-25T18:01:43.391Z,26.70
2022-08-25T18:04:17.297Z,26.70
2022-08-25T18:06:47.549Z,26.70
2022-08-25T18:09:17.487Z,26.70
2022-08-25T18:11:46.789Z,26.60
2022-08-25T18:14:17.739Z,26.60
2022-08-25T18:16:47.927Z,26.60
2022-08-25T18:19:17.002Z,26.60
2022-08-25T18:21:44.771Z,26.60
2022-08-25T18:24:13.293Z,26.60
2022-08-25T18:26:42.195Z,26.60
2022-08-25T18:29:14.248Z,26.60
2022-08-25T18:31:46.553Z,26.60
2022-08-25T18:34:17.197Z,26.60
2022-08-25T18:36:47.516Z,26.60
2022-08-25T18:39:32.849Z,26.60
2022-08-25T18:42:03.944Z,26.60
2022-08-25T18:44:33.650Z,26.60
2022-08-25T18:47:07.634Z,26.60
2022-08-25T18:49:36.834Z,26.60
2022-08-25T18:52:05.508Z,26.70
2022-08-25T18:54:33.693Z,26.70
2022-08-25T18:57:04.637Z,26.70
2022-08-25T18:59:36.929Z,26.70
2022-08-25T19:02:05.877Z,26.70
2022-08-25T19:04:34.662Z,26.70
2022-08-25T19:07:03.068Z,26.70
2022-08-25T19:09:31.299Z,26.70
2022-08-25T19:11:59.695Z,26.60
2022-08-25T19:14:27.760Z,26.70
2022-08-25T19:16:58.181Z,26.60
2022-08-25T19:19:25.993Z,26.60
2022-08-25T19:21:54.739Z,26.60
2022-08-25T19:24:22.882Z,26.60
2022-08-25T19:26:54.503Z,26.60
2022-08-25T19:29:22.679Z,26.60
2022-08-25T19:31:51.656Z,26.60
2022-08-25T19:34:23.057Z,26.60
2022-08-25T19:36:51.411Z,26.60
2022-08-25T19:39:20.586Z,26.60
2022-08-25T19:41:49.419Z,26.60
2022-08-25T19:44:18.073Z,26.60
2022-08-25T19:46:46.752Z,26.60
2022-08-25T19:49:21.813Z,26.60
2022-08-25T19:51:52.746Z,26.60
2022-08-25T19:54:23.063Z,26.60
2022-08-25T19:56:54.682Z,26.60
2022-08-25T19:59:25.482Z,26.60
2022-08-25T20:01:55.060Z,26.50
2022-08-25T20:04:24.613Z,26.50
2022-08-25T20:06:55.562Z,26.60
2022-08-25T20:09:39.355Z,26.60
2022-08-25T20:12:11.475Z,26.50
2022-08-25T20:14:40.280Z,26.50
2022-08-25T20:17:14.701Z,26.50
2022-08-25T20:19:53.742Z,26.60
2022-08-25T20:22:26.137Z,26.50
2022-08-25T20:25:00.284Z,26.50
2022-08-25T20:27:32.821Z,26.50
2022-08-25T20:30:02.670Z,26.50
2022-08-25T20:32:32.252Z,26.50
2022-08-25T20:35:01.799Z,26.60
2022-08-25T20:37:30.778Z,26.50
2022-08-25T20:39:58.679Z,26.60
2022-08-25T20:42:26.446Z,26.60
2022-08-25T20:44:55.918Z,26.50
2022-08-25T20:47:23.722Z,26.60
2022-08-25T20:49:51.445Z,26.50
2022-08-25T20:52:21.593Z,26.60
2022-08-25T20:54:50.990Z,26.60
2022-08-25T20:57:24.301Z,26.60
2022-08-25T20:59:55.382Z,26.60
2022-08-25T21:02:25.061Z,26.60
2022-08-25T21:04:53.862Z,26.60
2022-08-25T21:07:25.971Z,26.60
2022-08-25T21:09:53.984Z,26.60
2022-08-25T21:12:21.934Z,26.60
2022-08-25T21:14:50.635Z,26.60
2022-08-25T21:17:19.765Z,26.60
2022-08-25T21:22:17.545Z,26.60
2022-08-25T21:24:46.604Z,26.60
2022-08-25T21:27:15.207Z,26.60
2022-08-25T21:29:44.405Z,26.60
2022-08-25T21:32:22.346Z,26.60
2022-08-25T21:34:56.714Z,26.60
2022-08-25T21:37:25.206Z,26.50
2022-08-25T21:39:54.416Z,26.50
2022-08-25T21:42:25.156Z,26.50
2022-08-25T21:44:53.008Z,26.50
2022-08-25T21:47:21.674Z,26.50
2022-08-25T21:49:52.230Z,26.40
2022-08-25T21:52:21.162Z,26.40
2022-08-25T21:54:48.872Z,26.40
2022-08-25T21:57:19.246Z,26.40
2022-08-25T21:59:51.517Z,26.40
2022-08-25T22:02:22.685Z,26.40
2022-08-25T22:04:55.731Z,26.40
2022-08-25T22:07:24.786Z,26.30
2022-08-25T22:09:52.956Z,26.40
2022-08-25T22:12:21.741Z,26.30
2022-08-25T22:14:49.502Z,26.30
2022-08-25T22:17:21.238Z,26.30
2022-08-25T22:19:53.913Z,26.30
2022-08-25T22:22:21.896Z,26.30
2022-08-25T22:24:50.651Z,26.30
2022-08-25T22:27:18.386Z,26.20
2022-08-25T22:29:46.908Z,26.20
2022-08-25T22:32:15.542Z,26.20
2022-08-25T22:34:44.251Z,26.20
2022-08-25T22:37:12.406Z,26.10
2022-08-25T22:39:45.809Z,26.10
2022-08-25T22:42:14.468Z,26.10
2022-08-25T22:44:45.652Z,26.10
2022-08-25T22:47:14.275Z,26.10
2022-08-25T22:49:42.933Z,26.10
2022-08-25T22:52:13.013Z,26.10
2022-08-25T22:54:42.463Z,26.10
2022-08-25T22:57:11.895Z,26.10
2022-08-25T22:59:40.410Z,26.10
2022-08-25T23:02:09.176Z,26.10
2022-08-25T23:04:41.279Z,26.10
2022-08-25T23:07:11.760Z,26.10
2022-08-25T23:09:40.385Z,26.10
2022-08-25T23:12:08.273Z,26.10
2022-08-25T23:14:38.059Z,26.10
2022-08-25T23:17:09.897Z,26.10
2022-08-25T23:19:37.653Z,26.10
2022-08-25T23:22:12.916Z,26.10
2022-08-25T23:24:46.517Z,26.10
2022-08-25T23:27:19.848Z,26.10
2022-08-25T23:29:49.546Z,26.10
2022-08-25T23:32:18.318Z,26.10
2022-08-25T23:34:47.468Z,26.10
2022-08-25T23:37:16.130Z,26.10
2022-08-25T23:39:47.297Z,26.10
2022-08-25T23:42:18.367Z,26.10
2022-08-25T23:44:46.133Z,26.10
2022-08-25T23:47:13.866Z,26.00
2022-08-25T23:49:42.865Z,26.00
2022-08-25T23:52:11.531Z,26.00
2022-08-25T23:54:39.779Z,26.00
2022-08-25T23:57:07.562Z,26.00
2022-08-25T23:59:38.296Z,26.10
